Time;durP1;ratioP1;P1;durP2;ratioP2;P2;SDS_P1;SDS_P2;PMS_P1;PMS_P2;Temp;Humidity;BMP_temperature;BMP_pressure;BME280_temperature;BME280_humidity;BME280_pressure;Samples;Min_cycle;Max_cycle;Signal;HPM_P1;HPM_P2
2022/05/28 00:00:01;;;;;;;27.53;18.40;;;;;;;;;;4962048;28;20703;-44
2022/05/28 00:02:27;;;;;;;33.53;21.17;;;;;;;;;;4962117;28;20204;-44
2022/05/28 00:04:53;;;;;;;30.93;19.60;;;;;;;;;;4960760;28;20178;-44
2022/05/28 00:07:19;;;;;;;26.67;17.70;;;;;;;;;;4962224;28;20190;-44
2022/05/28 00:09:45;;;;;;;24.63;16.57;;;;;;;;;;4964666;28;20205;-44
2022/05/28 00:12:11;;;;;;;25.57;16.27;;;;;;;;;;4963093;28;20587;-43
2022/05/28 00:14:38;;;;;;;28.43;16.83;;;;;;;;;;4960526;28;20501;-44
2022/05/28 00:17:04;;;;;;;22.27;15.30;;;;;;;;;;4960697;28;20178;-44
2022/05/28 00:19:30;;;;;;;23.03;15.57;;;;;;;;;;4960973;28;20266;-44
2022/05/28 00:21:57;;;;;;;27.63;15.47;;;;;;;;;;4961459;28;20613;-44
2022/05/28 00:24:23;;;;;;;27.33;14.27;;;;;;;;;;4962038;28;20346;-44
2022/05/28 00:26:49;;;;;;;23.57;13.40;;;;;;;;;;4959654;28;20501;-44
2022/05/28 00:29:15;;;;;;;26.30;15.07;;;;;;;;;;4958053;28;20198;-43
2022/05/28 00:31:41;;;;;;;28.97;14.40;;;;;;;;;;4962037;28;20190;-44
2022/05/28 00:34:07;;;;;;;23.23;13.93;;;;;;;;;;4960660;28;20178;-44
2022/05/28 00:36:33;;;;;;;21.93;13.07;;;;;;;;;;4959897;28;20433;-43
2022/05/28 00:38:59;;;;;;;21.50;13.53;;;;;;;;;;4962866;28;20231;-44
2022/05/28 00:41:25;;;;;;;23.77;12.97;;;;;;;;;;4962395;28;20702;-44
2022/05/28 00:43:51;;;;;;;23.13;14.00;;;;;;;;;;4955690;28;20197;-44
2022/05/28 00:46:19;;;;;;;24.47;13.67;;;;;;;;;;4958156;28;20174;-43
2022/05/28 00:48:46;;;;;;;22.43;13.97;;;;;;;;;;4960016;28;20474;-44
2022/05/28 00:51:15;;;;;;;28.20;14.43;;;;;;;;;;4961432;28;20295;-44
2022/05/28 00:53:41;;;;;;;23.13;14.67;;;;;;;;;;4962421;28;20190;-43
2022/05/28 00:56:07;;;;;;;28.33;13.97;;;;;;;;;;4959256;28;20285;-42
2022/05/28 00:58:34;;;;;;;23.07;14.10;;;;;;;;;;4960471;28;20720;-43
2022/05/28 01:01:00;;;;;;;21.67;13.93;;;;;;;;;;4961840;28;20511;-44
2022/05/28 01:03:32;;;;;;;24.40;13.20;;;;;;;;;;4955923;28;20190;-44
2022/05/28 01:05:59;;;;;;;24.33;12.90;;;;;;;;;;4958870;28;20245;-44
2022/05/28 01:08:28;;;;;;;19.50;12.70;;;;;;;;;;4955837;28;21121;-44
2022/05/28 01:10:59;;;;;;;18.13;11.60;;;;;;;;;;4960236;28;20178;-44
2022/05/28 01:13:28;;;;;;;22.07;11.27;;;;;;;;;;4961804;28;20186;-44
2022/05/28 01:16:04;;;;;;;18.50;11.30;;;;;;;;;;4957700;28;21108;-44
2022/05/28 01:18:35;;;;;;;16.90;10.10;;;;;;;;;;4955991;28;20182;-42
2022/05/28 01:21:05;;;;;;;18.43;10.53;;;;;;;;;;4958332;28;20438;-42
2022/05/28 01:23:35;;;;;;;18.53;11.47;;;;;;;;;;4963478;28;20182;-42
2022/05/28 01:26:07;;;;;;;18.33;10.23;;;;;;;;;;4963655;28;20206;-42
2022/05/28 01:28:39;;;;;;;17.63;9.77;;;;;;;;;;4958765;28;20981;-42
2022/05/28 01:31:06;;;;;;;22.73;10.40;;;;;;;;;;4962895;28;20170;-42
2022/05/28 01:33:35;;;;;;;21.47;10.60;;;;;;;;;;4961507;28;21671;-42
2022/05/28 01:36:02;;;;;;;17.10;10.43;;;;;;;;;;4962946;28;20285;-42
2022/05/28 01:38:29;;;;;;;20.23;10.50;;;;;;;;;;4953041;28;20182;-42
2022/05/28 01:40:56;;;;;;;17.47;9.73;;;;;;;;;;4960001;28;20205;-42
2022/05/28 01:43:22;;;;;;;17.40;10.10;;;;;;;;;;4957490;28;20194;-42
2022/05/28 01:45:49;;;;;;;21.03;10.60;;;;;;;;;;4959019;28;20202;-41
2022/05/28 01:48:17;;;;;;;19.23;10.37;;;;;;;;;;4955780;28;20668;-41
2022/05/28 01:50:45;;;;;;;21.07;11.10;;;;;;;;;;4962393;28;20559;-42
2022/05/28 01:54:06;;;;;;;18.80;10.60;;;;;;;;;;4957225;28;20264;-42
2022/05/28 01:56:01;;;;;;;17.10;9.27;;;;;;;;;;4956385;28;20496;-42
2022/05/28 01:58:27;;;;;;;16.80;10.33;;;;;;;;;;4958634;28;20186;-42
2022/05/28 02:00:53;;;;;;;14.80;9.50;;;;;;;;;;4960115;28;20178;-44
2022/05/28 02:03:20;;;;;;;21.13;11.43;;;;;;;;;;4961037;28;20290;-44
2022/05/28 02:05:46;;;;;;;23.37;12.47;;;;;;;;;;4960488;28;20726;-44
2022/05/28 02:08:13;;;;;;;20.47;13.13;;;;;;;;;;4961340;28;20674;-44
2022/05/28 02:10:43;;;;;;;23.17;14.10;;;;;;;;;;4955532;28;20617;-44
2022/05/28 02:13:13;;;;;;;33.10;15.90;;;;;;;;;;4956929;28;20185;-44
2022/05/28 02:15:49;;;;;;;23.37;16.27;;;;;;;;;;4959276;28;20183;-44
2022/05/28 02:18:33;;;;;;;26.87;16.90;;;;;;;;;;4949924;28;20185;-45
2022/05/28 02:21:02;;;;;;;27.83;18.67;;;;;;;;;;4957055;28;20182;-44
2022/05/28 02:23:38;;;;;;;26.93;17.70;;;;;;;;;;4959529;28;20189;-43
2022/05/28 02:26:09;;;;;;;23.80;17.03;;;;;;;;;;4956242;28;20474;-44
2022/05/28 02:28:35;;;;;;;30.77;21.43;;;;;;;;;;4957235;28;20650;-44
2022/05/28 02:31:10;;;;;;;31.70;21.53;;;;;;;;;;4956893;28;20186;-43
2022/05/28 02:33:36;;;;;;;26.80;18.67;;;;;;;;;;4958679;28;20250;-43
2022/05/28 02:36:02;;;;;;;28.27;20.03;;;;;;;;;;4962110;28;21052;-44
2022/05/28 02:38:29;;;;;;;32.63;20.57;;;;;;;;;;4956128;28;20214;-43
2022/05/28 02:40:56;;;;;;;31.43;19.60;;;;;;;;;;4955956;28;20579;-44
2022/05/28 02:43:25;;;;;;;29.30;19.50;;;;;;;;;;4960228;28;20788;-43
2022/05/28 02:45:51;;;;;;;32.57;19.73;;;;;;;;;;4954955;28;20193;-43
2022/05/28 02:48:17;;;;;;;32.90;20.20;;;;;;;;;;4957396;28;20728;-43
2022/05/28 02:50:43;;;;;;;27.43;19.83;;;;;;;;;;4959906;28;20603;-42
2022/05/28 02:53:11;;;;;;;26.33;18.80;;;;;;;;;;4952984;28;20186;-43
2022/05/28 02:55:37;;;;;;;30.63;19.73;;;;;;;;;;4957175;28;20374;-43
2022/05/28 02:58:03;;;;;;;27.73;19.43;;;;;;;;;;4960634;28;20185;-43
2022/05/28 03:00:29;;;;;;;35.07;20.10;;;;;;;;;;4955838;28;20182;-43
2022/05/28 03:02:56;;;;;;;26.03;18.90;;;;;;;;;;4954330;28;20181;-43
2022/05/28 03:05:24;;;;;;;28.00;18.23;;;;;;;;;;4959016;28;20185;-43
2022/05/28 03:07:50;;;;;;;29.83;19.67;;;;;;;;;;4956768;28;20190;-43
2022/05/28 03:10:16;;;;;;;22.20;17.87;;;;;;;;;;4954469;28;20858;-42
2022/05/28 03:12:43;;;;;;;24.43;17.10;;;;;;;;;;4952911;28;20171;-43
2022/05/28 03:15:09;;;;;;;21.53;17.13;;;;;;;;;;4958405;28;20461;-43
2022/05/28 03:17:36;;;;;;;27.33;18.83;;;;;;;;;;4959939;28;20252;-43
2022/05/28 03:20:02;;;;;;;27.97;18.27;;;;;;;;;;4951876;28;20969;-43
2022/05/28 03:22:28;;;;;;;23.87;17.33;;;;;;;;;;4956054;28;20193;-43
2022/05/28 03:24:54;;;;;;;29.47;17.33;;;;;;;;;;4958307;28;20722;-42
2022/05/28 03:27:21;;;;;;;24.40;17.03;;;;;;;;;;4954791;28;20552;-43
2022/05/28 03:29:47;;;;;;;26.57;17.30;;;;;;;;;;4955717;28;20328;-43
2022/05/28 03:32:13;;;;;;;31.97;19.00;;;;;;;;;;4958898;28;20358;-43
2022/05/28 03:34:39;;;;;;;26.23;17.90;;;;;;;;;;4962664;28;20745;-44
2022/05/28 03:37:05;;;;;;;25.70;17.93;;;;;;;;;;4960998;28;20169;-43
2022/05/28 03:39:31;;;;;;;33.33;19.27;;;;;;;;;;4963162;28;20651;-43
2022/05/28 03:41:57;;;;;;;32.97;20.00;;;;;;;;;;4961916;28;20186;-43
2022/05/28 03:44:23;;;;;;;32.10;20.90;;;;;;;;;;4961119;28;20648;-44
2022/05/28 03:46:50;;;;;;;32.13;21.07;;;;;;;;;;4958550;28;20622;-43
2022/05/28 03:49:19;;;;;;;34.07;22.60;;;;;;;;;;4962671;28;20524;-44
2022/05/28 03:51:45;;;;;;;26.40;20.53;;;;;;;;;;4955110;28;20186;-43
2022/05/28 03:54:11;;;;;;;36.53;20.77;;;;;;;;;;4954432;28;20536;-44
2022/05/28 03:56:40;;;;;;;32.93;22.27;;;;;;;;;;4958464;28;20714;-44
2022/05/28 03:59:07;;;;;;;28.73;20.43;;;;;;;;;;4957463;28;20178;-43
2022/05/28 04:01:34;;;;;;;30.73;20.70;;;;;;;;;;4956226;28;20185;-44
2022/05/28 04:04:00;;;;;;;31.63;20.87;;;;;;;;;;4963141;28;20189;-44
2022/05/28 04:06:26;;;;;;;32.33;20.83;;;;;;;;;;4963391;28;20253;-44
2022/05/28 04:08:52;;;;;;;39.60;22.37;;;;;;;;;;4961872;28;20394;-43
2022/05/28 04:11:18;;;;;;;30.20;20.87;;;;;;;;;;4961099;28;20515;-42
2022/05/28 04:13:45;;;;;;;38.87;21.07;;;;;;;;;;4961031;28;20277;-43
2022/05/28 04:16:11;;;;;;;33.27;20.23;;;;;;;;;;4958096;28;20174;-44
2022/05/28 04:18:37;;;;;;;32.43;20.87;;;;;;;;;;4957042;28;20182;-44
2022/05/28 04:21:03;;;;;;;33.00;21.43;;;;;;;;;;4961469;28;20178;-44
2022/05/28 04:23:29;;;;;;;37.00;22.03;;;;;;;;;;4959684;28;20722;-43
2022/05/28 04:25:55;;;;;;;34.80;20.40;;;;;;;;;;4955095;28;21347;-43
2022/05/28 04:28:22;;;;;;;35.67;20.33;;;;;;;;;;4954831;28;20218;-43
2022/05/28 04:30:48;;;;;;;32.23;23.03;;;;;;;;;;4957016;28;20190;-44
2022/05/28 04:33:14;;;;;;;32.90;23.63;;;;;;;;;;4956503;28;20595;-43
2022/05/28 04:35:40;;;;;;;36.20;23.60;;;;;;;;;;4962920;28;20695;-44
2022/05/28 04:38:06;;;;;;;38.17;24.20;;;;;;;;;;4960975;28;20459;-43
2022/05/28 04:40:32;;;;;;;32.27;21.63;;;;;;;;;;4956528;28;20702;-43
2022/05/28 04:42:58;;;;;;;28.80;22.50;;;;;;;;;;4958666;28;20194;-44
2022/05/28 04:45:24;;;;;;;34.00;21.07;;;;;;;;;;4960211;28;20178;-43
2022/05/28 04:47:50;;;;;;;33.50;22.27;;;;;;;;;;4957570;28;20202;-44
2022/05/28 04:50:16;;;;;;;30.63;21.53;;;;;;;;;;4957384;28;20977;-43
2022/05/28 04:52:42;;;;;;;32.43;22.43;;;;;;;;;;4960646;28;20174;-43
2022/05/28 04:55:10;;;;;;;29.23;20.90;;;;;;;;;;4960669;28;20182;-44
2022/05/28 04:57:36;;;;;;;33.00;21.17;;;;;;;;;;4960333;28;20273;-43
2022/05/28 05:00:04;;;;;;;34.87;22.20;;;;;;;;;;4958936;28;20202;-43
2022/05/28 05:02:30;;;;;;;27.03;21.47;;;;;;;;;;4961932;28;20173;-43
2022/05/28 05:04:56;;;;;;;28.37;19.70;;;;;;;;;;4963088;28;21200;-44
2022/05/28 05:07:22;;;;;;;30.63;19.57;;;;;;;;;;4959070;28;20184;-44
2022/05/28 05:09:49;;;;;;;27.17;18.93;;;;;;;;;;4958469;28;20639;-44
2022/05/28 05:12:15;;;;;;;28.73;20.00;;;;;;;;;;4963712;28;20181;-43
2022/05/28 05:14:41;;;;;;;25.37;20.23;;;;;;;;;;4958812;28;20674;-43
2022/05/28 05:17:07;;;;;;;34.37;20.30;;;;;;;;;;4957986;28;20190;-44
2022/05/28 05:19:33;;;;;;;30.43;20.23;;;;;;;;;;4958772;28;20345;-44
2022/05/28 05:21:59;;;;;;;27.73;19.43;;;;;;;;;;4965099;28;20178;-44
2022/05/28 05:24:25;;;;;;;29.43;19.87;;;;;;;;;;4956594;28;20182;-43
2022/05/28 05:26:52;;;;;;;33.87;21.63;;;;;;;;;;4953818;28;20443;-43
2022/05/28 05:29:18;;;;;;;25.37;19.47;;;;;;;;;;4961256;28;20202;-43
2022/05/28 05:31:44;;;;;;;30.87;18.97;;;;;;;;;;4963102;28;20205;-43
2022/05/28 05:34:10;;;;;;;34.40;22.33;;;;;;;;;;4961519;28;20960;-43
2022/05/28 05:36:37;;;;;;;33.83;20.67;;;;;;;;;;4955947;28;20182;-43
2022/05/28 05:39:03;;;;;;;30.43;21.30;;;;;;;;;;4962888;28;21170;-43
2022/05/28 05:41:29;;;;;;;32.37;22.53;;;;;;;;;;4958598;28;20189;-43
2022/05/28 05:43:55;;;;;;;30.03;21.17;;;;;;;;;;4958154;28;20202;-43
2022/05/28 05:46:21;;;;;;;27.00;19.73;;;;;;;;;;4960177;28;20710;-43
2022/05/28 05:48:48;;;;;;;29.93;20.40;;;;;;;;;;4958646;28;20297;-43
2022/05/28 05:51:15;;;;;;;28.40;21.20;;;;;;;;;;4960066;28;20170;-42
2022/05/28 05:53:42;;;;;;;26.53;18.77;;;;;;;;;;4963030;28;20647;-43
2022/05/28 05:56:08;;;;;;;30.40;20.63;;;;;;;;;;4958054;28;20556;-43
2022/05/28 05:58:34;;;;;;;29.53;21.47;;;;;;;;;;4959105;28;20289;-43
2022/05/28 06:01:02;;;;;;;34.90;21.73;;;;;;;;;;4960005;28;20268;-43
2022/05/28 06:03:28;;;;;;;30.97;20.27;;;;;;;;;;4963049;28;20186;-43
2022/05/28 06:06:01;;;;;;;30.47;21.57;;;;;;;;;;4959378;28;20410;-43
2022/05/28 06:08:27;;;;;;;31.57;20.07;;;;;;;;;;4965353;28;20198;-43
2022/05/28 06:10:54;;;;;;;32.33;20.37;;;;;;;;;;4959963;28;20182;-43
2022/05/28 06:13:20;;;;;;;32.43;20.13;;;;;;;;;;4961665;28;20174;-43
2022/05/28 06:15:46;;;;;;;30.10;20.67;;;;;;;;;;4963664;28;20715;-43
2022/05/28 06:18:13;;;;;;;29.90;19.87;;;;;;;;;;4960636;28;20186;-43
2022/05/28 06:20:39;;;;;;;29.93;19.63;;;;;;;;;;4962131;28;20953;-43
2022/05/28 06:23:06;;;;;;;29.67;20.03;;;;;;;;;;4960015;28;20240;-42
2022/05/28 06:25:32;;;;;;;35.90;21.07;;;;;;;;;;4958169;28;20554;-43
2022/05/28 06:27:58;;;;;;;34.73;21.10;;;;;;;;;;4936645;28;20381;-43
2022/05/28 06:30:24;;;;;;;25.67;19.37;;;;;;;;;;4958552;28;20174;-42
2022/05/28 06:32:50;;;;;;;28.67;19.47;;;;;;;;;;4962484;28;20312;-43
2022/05/28 06:35:17;;;;;;;30.07;18.50;;;;;;;;;;4959965;28;20704;-43
2022/05/28 06:37:43;;;;;;;34.63;20.13;;;;;;;;;;4954409;28;20760;-43
2022/05/28 06:40:09;;;;;;;30.73;19.17;;;;;;;;;;4958274;28;20414;-43
2022/05/28 06:42:36;;;;;;;26.87;16.77;;;;;;;;;;4959659;28;20178;-42
2022/05/28 06:45:02;;;;;;;28.57;18.50;;;;;;;;;;4960340;28;20178;-43
2022/05/28 06:47:28;;;;;;;33.50;18.50;;;;;;;;;;4960650;28;20847;-43
2022/05/28 06:52:39;;;;;;;29.47;18.43;;;;;;;;;;4957126;28;20194;-43
2022/05/28 06:55:05;;;;;;;34.13;18.10;;;;;;;;;;4962952;28;20175;-43
2022/05/28 06:57:31;;;;;;;26.70;16.17;;;;;;;;;;4958155;28;20208;-43
2022/05/28 07:00:00;;;;;;;33.53;18.63;;;;;;;;;;4953932;28;20725;-43
2022/05/28 07:02:26;;;;;;;33.30;17.60;;;;;;;;;;4961889;28;20625;-43
2022/05/28 07:04:53;;;;;;;29.90;17.60;;;;;;;;;;4959764;28;20528;-43
2022/05/28 07:07:19;;;;;;;30.67;17.40;;;;;;;;;;4961562;28;20281;-43
2022/05/28 07:09:45;;;;;;;31.03;17.40;;;;;;;;;;4943975;28;20538;-43
2022/05/28 07:12:11;;;;;;;30.53;18.87;;;;;;;;;;4962565;28;20174;-43
2022/05/28 07:14:37;;;;;;;30.40;19.10;;;;;;;;;;4955460;28;20663;-43
2022/05/28 07:17:03;;;;;;;36.27;21.63;;;;;;;;;;4962763;28;20189;-43
2022/05/28 07:19:29;;;;;;;28.73;20.90;;;;;;;;;;4961312;28;20596;-43
2022/05/28 07:21:55;;;;;;;39.57;22.80;;;;;;;;;;4960639;28;20546;-42
2022/05/28 07:24:21;;;;;;;33.33;23.23;;;;;;;;;;4966272;28;20291;-44
2022/05/28 07:26:51;;;;;;;28.97;20.63;;;;;;;;;;4948087;28;20190;-43
2022/05/28 07:29:17;;;;;;;30.70;20.40;;;;;;;;;;4961803;28;21023;-44
2022/05/28 07:31:44;;;;;;;32.67;20.70;;;;;;;;;;4962074;28;20277;-43
2022/05/28 07:34:10;;;;;;;29.97;20.43;;;;;;;;;;4965420;28;20177;-44
2022/05/28 07:36:36;;;;;;;33.77;20.30;;;;;;;;;;4966737;28;20166;-43
2022/05/28 07:39:03;;;;;;;29.87;18.30;;;;;;;;;;4964133;28;20198;-43
2022/05/28 07:41:29;;;;;;;31.43;19.10;;;;;;;;;;4964692;28;20288;-43
2022/05/28 07:43:56;;;;;;;26.90;18.00;;;;;;;;;;4965261;28;20202;-41
2022/05/28 07:46:26;;;;;;;30.70;19.10;;;;;;;;;;4963999;28;20189;-42
2022/05/28 07:48:54;;;;;;;28.37;16.80;;;;;;;;;;4961576;28;20264;-43
2022/05/28 07:51:20;;;;;;;25.17;18.40;;;;;;;;;;4960725;28;20346;-44
2022/05/28 07:53:46;;;;;;;23.83;15.37;;;;;;;;;;4962052;28;20819;-44
2022/05/28 07:56:12;;;;;;;29.13;16.57;;;;;;;;;;4950301;28;20179;-44
2022/05/28 07:58:38;;;;;;;28.73;17.27;;;;;;;;;;4959284;28;20300;-43
2022/05/28 08:01:06;;;;;;;26.50;16.57;;;;;;;;;;4961690;28;20210;-44
2022/05/28 08:03:32;;;;;;;21.00;14.43;;;;;;;;;;4954588;28;20196;-43
2022/05/28 08:05:59;;;;;;;23.60;15.77;;;;;;;;;;4963148;28;20816;-43
2022/05/28 08:08:26;;;;;;;24.87;15.10;;;;;;;;;;4963472;28;20292;-43
2022/05/28 08:10:52;;;;;;;20.00;13.13;;;;;;;;;;4961913;28;20174;-44
2022/05/28 08:13:20;;;;;;;29.93;15.43;;;;;;;;;;4963737;28;20204;-44
2022/05/28 08:15:46;;;;;;;23.70;14.50;;;;;;;;;;4962326;28;20607;-43
2022/05/28 08:18:14;;;;;;;25.03;14.23;;;;;;;;;;4960931;28;20178;-44
2022/05/28 08:23:25;;;;;;;23.83;14.20;;;;;;;;;;4963980;28;20189;-44
2022/05/28 08:25:51;;;;;;;25.80;14.77;;;;;;;;;;4961803;28;20524;-43
2022/05/28 08:28:18;;;;;;;22.87;12.83;;;;;;;;;;4960265;28;20194;-43
2022/05/28 08:30:44;;;;;;;24.10;12.43;;;;;;;;;;4961654;28;20427;-44
2022/05/28 08:33:12;;;;;;;21.57;11.10;;;;;;;;;;4959256;28;20174;-44
2022/05/28 08:35:39;;;;;;;20.63;12.53;;;;;;;;;;4958979;28;20201;-44
2022/05/28 08:38:13;;;;;;;18.07;12.37;;;;;;;;;;4963921;28;20326;-44
2022/05/28 08:40:44;;;;;;;21.40;11.63;;;;;;;;;;4964507;28;20174;-44
2022/05/28 08:43:10;;;;;;;25.43;12.53;;;;;;;;;;4960428;28;20194;-44
2022/05/28 08:45:36;;;;;;;23.37;12.83;;;;;;;;;;4968865;28;20175;-44
2022/05/28 08:48:04;;;;;;;24.37;13.17;;;;;;;;;;4963024;28;20451;-44
2022/05/28 08:50:30;;;;;;;22.00;13.43;;;;;;;;;;4961253;28;20614;-43
2022/05/28 08:53:10;;;;;;;22.67;13.80;;;;;;;;;;4962100;28;20814;-44
2022/05/28 08:55:40;;;;;;;25.97;13.90;;;;;;;;;;4965834;28;20609;-43
2022/05/28 08:58:08;;;;;;;27.43;12.17;;;;;;;;;;4963988;28;20178;-43
2022/05/28 09:00:39;;;;;;;24.50;12.23;;;;;;;;;;4959882;28;20409;-44
2022/05/28 09:03:28;;;;;;;21.43;12.03;;;;;;;;;;4964557;28;20183;-43
2022/05/28 09:05:54;;;;;;;17.43;10.17;;;;;;;;;;4950505;28;20213;-43
2022/05/28 09:08:29;;;;;;;20.07;10.73;;;;;;;;;;4965186;28;20360;-44
2022/05/28 09:10:57;;;;;;;21.83;11.00;;;;;;;;;;4962048;28;20188;-45
2022/05/28 09:13:29;;;;;;;20.23;10.70;;;;;;;;;;4959492;28;20178;-43
2022/05/28 09:15:56;;;;;;;24.93;10.80;;;;;;;;;;4964678;28;20177;-44
2022/05/28 09:18:23;;;;;;;22.17;11.20;;;;;;;;;;4968723;28;20174;-43
2022/05/28 09:20:50;;;;;;;11.77;8.90;;;;;;;;;;4963630;28;20902;-43
2022/05/28 09:23:16;;;;;;;15.80;8.83;;;;;;;;;;4963733;28;20920;-44
2022/05/28 09:25:45;;;;;;;21.20;9.70;;;;;;;;;;4966114;28;20174;-44
2022/05/28 09:28:14;;;;;;;11.87;8.37;;;;;;;;;;4960649;28;20276;-44
2022/05/28 09:30:54;;;;;;;14.40;8.60;;;;;;;;;;4959859;28;21293;-43
2022/05/28 09:33:29;;;;;;;14.23;8.33;;;;;;;;;;4963351;28;20681;-43
2022/05/28 09:35:59;;;;;;;17.60;8.60;;;;;;;;;;4964794;28;20182;-44
2022/05/28 09:38:33;;;;;;;16.13;8.33;;;;;;;;;;4962637;28;20252;-44
2022/05/28 09:41:19;;;;;;;14.93;8.33;;;;;;;;;;4963396;28;20181;-44
2022/05/28 09:44:04;;;;;;;16.00;7.97;;;;;;;;;;4964041;28;20272;-44
2022/05/28 09:46:30;;;;;;;14.67;8.00;;;;;;;;;;4962335;28;20174;-44
2022/05/28 09:49:26;;;;;;;19.23;7.40;;;;;;;;;;4964742;28;20237;-44
2022/05/28 09:51:52;;;;;;;13.87;6.83;;;;;;;;;;4942032;28;20189;-44
2022/05/28 09:54:21;;;;;;;19.83;6.70;;;;;;;;;;4962230;28;20531;-44
2022/05/28 09:57:10;;;;;;;13.87;6.63;;;;;;;;;;4961262;28;20181;-44
2022/05/28 09:59:47;;;;;;;14.57;7.07;;;;;;;;;;4945166;28;20190;-44
2022/05/28 10:02:31;;;;;;;18.00;7.07;;;;;;;;;;4953672;28;20255;-44
2022/05/28 10:05:03;;;;;;;13.27;6.30;;;;;;;;;;4955398;28;20366;-44
2022/05/28 10:07:31;;;;;;;15.40;6.40;;;;;;;;;;4960213;28;21025;-44
2022/05/28 10:09:57;;;;;;;14.67;6.23;;;;;;;;;;4961753;28;20285;-44
2022/05/28 10:12:25;;;;;;;12.00;5.70;;;;;;;;;;4960681;28;20276;-44
2022/05/28 10:15:17;;;;;;;22.70;7.00;;;;;;;;;;4957507;28;20178;-44
2022/05/28 10:17:45;;;;;;;18.83;6.87;;;;;;;;;;4952077;28;20190;-43
2022/05/28 10:20:16;;;;;;;16.63;6.40;;;;;;;;;;4960800;28;20532;-43
2022/05/28 10:22:42;;;;;;;12.80;6.40;;;;;;;;;;4959336;28;20498;-43
2022/05/28 10:25:13;;;;;;;11.73;5.63;;;;;;;;;;4958153;28;20660;-44
2022/05/28 10:27:49;;;;;;;12.40;5.27;;;;;;;;;;4962126;28;20193;-44
2022/05/28 10:30:41;;;;;;;9.77;5.07;;;;;;;;;;4957151;28;20241;-44
2022/05/28 10:33:09;;;;;;;12.17;5.60;;;;;;;;;;4955258;28;20182;-44
2022/05/28 10:35:35;;;;;;;10.90;5.13;;;;;;;;;;4964288;28;20178;-44
2022/05/28 10:38:14;;;;;;;12.23;5.73;;;;;;;;;;4959386;28;20672;-45
2022/05/28 10:40:51;;;;;;;19.73;5.60;;;;;;;;;;4956148;28;20174;-45
2022/05/28 10:43:28;;;;;;;9.60;5.33;;;;;;;;;;4960735;28;20252;-45
2022/05/28 10:46:00;;;;;;;12.20;5.83;;;;;;;;;;4942008;28;20174;-44
2022/05/28 10:48:46;;;;;;;14.07;5.97;;;;;;;;;;4958638;28;20205;-45
2022/05/28 10:51:20;;;;;;;14.20;6.50;;;;;;;;;;4961211;28;20184;-44
2022/05/28 10:53:48;;;;;;;14.20;5.93;;;;;;;;;;4960924;28;20183;-45
2022/05/28 10:56:20;;;;;;;14.70;5.67;;;;;;;;;;4961761;28;20208;-45
2022/05/28 10:59:04;;;;;;;12.83;5.60;;;;;;;;;;4955255;28;21187;-44
2022/05/28 11:01:49;;;;;;;10.93;5.57;;;;;;;;;;4953996;28;20178;-44
2022/05/28 11:04:15;;;;;;;11.30;5.30;;;;;;;;;;4955391;28;20182;-45
2022/05/28 11:07:17;;;;;;;15.63;5.50;;;;;;;;;;4957019;28;20178;-45
2022/05/28 11:10:02;;;;;;;11.83;6.03;;;;;;;;;;4881472;29;20208;-45
2022/05/28 11:12:35;;;;;;;12.90;5.47;;;;;;;;;;4956158;28;20186;-44
2022/05/28 11:15:04;;;;;;;13.20;5.10;;;;;;;;;;4960323;28;20213;-45
2022/05/28 11:17:36;;;;;;;10.30;4.90;;;;;;;;;;4961677;28;20273;-44
2022/05/28 11:20:08;;;;;;;14.13;5.30;;;;;;;;;;4934361;28;20218;-44
2022/05/28 11:22:37;;;;;;;7.30;4.83;;;;;;;;;;4955612;28;20193;-44
2022/05/28 11:25:22;;;;;;;18.07;5.10;;;;;;;;;;4960789;28;20219;-44
2022/05/28 11:27:48;;;;;;;13.07;4.90;;;;;;;;;;4958901;28;20256;-44
2022/05/28 11:30:33;;;;;;;14.57;5.37;;;;;;;;;;4956223;28;20289;-44
2022/05/28 11:33:05;;;;;;;15.17;5.30;;;;;;;;;;4955714;28;20182;-44
2022/05/28 11:35:38;;;;;;;12.33;4.90;;;;;;;;;;4959230;28;20939;-45
2022/05/28 11:38:07;;;;;;;17.63;5.53;;;;;;;;;;4957655;28;20642;-44
2022/05/28 11:40:37;;;;;;;14.73;4.53;;;;;;;;;;4953089;28;20191;-45
2022/05/28 11:43:03;;;;;;;17.63;4.93;;;;;;;;;;4959635;28;20947;-45
2022/05/28 11:45:30;;;;;;;12.10;4.67;;;;;;;;;;4960184;28;20297;-45
2022/05/28 11:48:12;;;;;;;14.67;4.73;;;;;;;;;;4956549;28;20274;-45
2022/05/28 11:53:34;;;;;;;17.70;3.93;;;;;;;;;;4962844;28;21215;-45
2022/05/28 11:56:08;;;;;;;13.53;4.03;;;;;;;;;;4961763;28;20174;-45
2022/05/28 11:58:38;;;;;;;10.90;4.20;;;;;;;;;;4952409;28;20177;-45
2022/05/28 12:01:09;;;;;;;21.47;4.63;;;;;;;;;;4964028;28;20182;-45
2022/05/28 12:03:36;;;;;;;23.50;4.20;;;;;;;;;;4964225;28;20178;-45
2022/05/28 12:06:05;;;;;;;18.63;4.27;;;;;;;;;;4958716;28;21168;-45
2022/05/28 12:08:31;;;;;;;18.57;3.93;;;;;;;;;;4961505;28;20326;-44
2022/05/28 12:11:00;;;;;;;15.43;4.17;;;;;;;;;;4963247;28;20258;-44
2022/05/28 12:13:31;;;;;;;15.90;4.40;;;;;;;;;;4962259;28;20167;-44
2022/05/28 12:16:09;;;;;;;13.13;4.43;;;;;;;;;;4956810;28;20178;-45
2022/05/28 12:18:36;;;;;;;10.40;3.50;;;;;;;;;;4960791;28;20188;-44
2022/05/28 12:21:02;;;;;;;15.33;4.17;;;;;;;;;;4962676;28;20192;-45
2022/05/28 12:23:31;;;;;;;17.47;3.87;;;;;;;;;;4959705;28;20596;-44
2022/05/28 12:25:57;;;;;;;16.43;3.87;;;;;;;;;;4963702;28;20192;-44
2022/05/28 12:28:26;;;;;;;13.07;3.67;;;;;;;;;;4962512;28;20186;-45
2022/05/28 12:30:54;;;;;;;12.67;3.60;;;;;;;;;;4960026;28;20628;-44
2022/05/28 12:33:23;;;;;;;25.83;4.30;;;;;;;;;;4959408;28;20179;-44
2022/05/28 12:35:52;;;;;;;28.43;4.83;;;;;;;;;;4961501;28;20274;-44
2022/05/28 12:38:31;;;;;;;21.57;4.03;;;;;;;;;;4958937;28;20178;-44
2022/05/28 12:40:59;;;;;;;36.97;5.20;;;;;;;;;;4955322;28;20174;-44
2022/05/28 12:43:25;;;;;;;37.73;5.30;;;;;;;;;;4958259;28;20669;-45
2022/05/28 12:45:52;;;;;;;21.97;4.07;;;;;;;;;;4962183;28;20583;-45
2022/05/28 12:48:29;;;;;;;20.67;3.93;;;;;;;;;;4962132;28;20676;-44
2022/05/28 12:51:14;;;;;;;19.53;3.73;;;;;;;;;;4958334;28;20209;-44
2022/05/28 12:53:57;;;;;;;23.33;3.87;;;;;;;;;;4961672;28;20623;-45
2022/05/28 12:56:35;;;;;;;17.87;3.43;;;;;;;;;;4959474;28;20175;-44
2022/05/28 12:59:08;;;;;;;19.10;3.40;;;;;;;;;;4959266;28;20211;-44
2022/05/28 13:01:35;;;;;;;17.80;3.90;;;;;;;;;;4956486;28;20174;-44
2022/05/28 13:04:05;;;;;;;18.83;3.90;;;;;;;;;;4955445;28;20824;-44
2022/05/28 13:06:35;;;;;;;13.80;3.63;;;;;;;;;;4954579;28;20620;-44
2022/05/28 13:09:07;;;;;;;17.60;4.10;;;;;;;;;;4957848;28;20200;-43
2022/05/28 13:11:38;;;;;;;13.20;3.77;;;;;;;;;;4935218;28;20591;-44
2022/05/28 13:14:04;;;;;;;17.67;3.90;;;;;;;;;;4957289;28;20228;-43
2022/05/28 13:16:30;;;;;;;17.93;4.07;;;;;;;;;;4960427;28;20178;-44
2022/05/28 13:19:08;;;;;;;19.63;3.97;;;;;;;;;;4954216;28;20172;-43
2022/05/28 13:21:35;;;;;;;13.57;3.70;;;;;;;;;;4958607;28;20687;-44
2022/05/28 13:24:01;;;;;;;15.87;3.60;;;;;;;;;;4960695;28;20183;-44
2022/05/28 13:26:46;;;;;;;15.13;3.80;;;;;;;;;;4959858;28;20205;-44
2022/05/28 13:29:12;;;;;;;16.57;4.33;;;;;;;;;;4957227;28;20238;-43
2022/05/28 13:31:40;;;;;;;18.17;4.20;;;;;;;;;;4956154;28;20808;-44
2022/05/28 13:34:18;;;;;;;15.77;3.67;;;;;;;;;;4956857;28;20181;-44
2022/05/28 13:36:44;;;;;;;27.93;3.90;;;;;;;;;;4953623;28;20220;-43
2022/05/28 13:39:10;;;;;;;17.00;4.17;;;;;;;;;;4960613;28;20717;-44
2022/05/28 13:41:44;;;;;;;20.70;4.30;;;;;;;;;;4958221;28;20846;-44
2022/05/28 13:44:11;;;;;;;18.33;4.33;;;;;;;;;;4957682;28;20604;-44
2022/05/28 13:46:38;;;;;;;17.30;3.90;;;;;;;;;;4961444;28;20603;-45
2022/05/28 13:49:08;;;;;;;15.00;4.43;;;;;;;;;;4954471;28;20195;-44
2022/05/28 13:51:35;;;;;;;18.37;3.67;;;;;;;;;;4953965;28;20174;-44
2022/05/28 13:54:07;;;;;;;16.50;3.90;;;;;;;;;;4959820;28;20446;-43
2022/05/28 13:56:34;;;;;;;13.93;3.93;;;;;;;;;;4955889;28;20725;-44
2022/05/28 13:59:00;;;;;;;15.57;4.00;;;;;;;;;;4959322;28;20927;-44
2022/05/28 14:01:31;;;;;;;15.30;3.67;;;;;;;;;;4958163;28;20182;-44
2022/05/28 14:04:09;;;;;;;16.77;4.33;;;;;;;;;;4952720;28;20850;-45
2022/05/28 14:06:36;;;;;;;17.67;4.13;;;;;;;;;;4955812;28;20178;-44
2022/05/28 14:09:04;;;;;;;21.03;4.40;;;;;;;;;;4960197;28;20217;-45
2022/05/28 14:11:30;;;;;;;21.37;4.20;;;;;;;;;;4959572;28;20563;-45
2022/05/28 14:14:00;;;;;;;13.83;3.83;;;;;;;;;;4958107;28;20933;-45
2022/05/28 14:16:32;;;;;;;16.23;3.50;;;;;;;;;;4960092;28;20273;-45
2022/05/28 14:19:02;;;;;;;18.87;4.07;;;;;;;;;;4958267;28;20690;-45
2022/05/28 14:21:32;;;;;;;16.43;4.00;;;;;;;;;;4955213;28;20597;-44
2022/05/28 14:23:59;;;;;;;17.33;3.93;;;;;;;;;;4960652;28;20189;-45
2022/05/28 14:26:26;;;;;;;24.60;4.20;;;;;;;;;;4952954;28;20732;-45
2022/05/28 14:28:52;;;;;;;21.23;3.97;;;;;;;;;;4956758;28;20208;-45
2022/05/28 14:31:19;;;;;;;13.80;3.53;;;;;;;;;;4959510;28;20268;-45
2022/05/28 14:33:49;;;;;;;17.13;4.00;;;;;;;;;;4959587;28;20171;-45
2022/05/28 14:36:26;;;;;;;14.90;3.97;;;;;;;;;;4957318;28;20356;-44
2022/05/28 14:38:52;;;;;;;15.90;3.43;;;;;;;;;;4963878;28;20184;-45